Suches, GA (30572)

3:49 AM EDT on April 18, 2015 (GMT -0400)
RAWS | | Change Station
CLOSE
Current Station
Personal Weather Station
Location: Suches, GA
Elevation: 2415 ft
Nearby Weather Stations

Elev 2415 ft 34.76 °N, 84.07 °W | Updated 44 minutes ago

Overcast
Overcast
56 °F
Feels Like 56 °F
N
0
Wind Variable Wind from North
Gusts 3.0 mph

Today
High -- | Low -- °F
--% Chance of Precip.
Yesterday
High -- | Low -- °F
Precip. -- in
7:01 AM 8:10 PM
Waning Crescent, 0% visible
Pressure 30.04 in
Visibility 0.2 miles
Clouds
Dew Point 56 °F
Humidity 100%
Rainfall in
Snow Depth Not available.
UV Not available.
Pollen 7.20 out of 12
Air Quality Not available.
Flu Activity Sporadic
METAR KDZJ 180735Z AUTO 00000KT 1/4SM HZ 15/12 A3004 RMK AO2 T01510117

More Conditions Fewer Conditions

Pressure 30.04 in
Visibility 0.2 miles
Clouds
Dew Point 56 °F
Humidity 100%
Rainfall in
Snow Depth Not available.
UV Not available.
Pollen 7.20 out of 12
Air Quality Not available.
Flu Activity Sporadic
METAR KDZJ 180735Z AUTO 00000KT 1/4SM HZ 15/12 A3004 RMK AO2 T01510117

More Conditions Fewer Conditions

10-Day Weather Forecast

Almanac

Astronomy

Apr. 18, 2015 Rise Set
Actual Time
Civil Twilight
Nautical Twilight
Astronomical Twilight
Moon
Length of Visible Light
Length of Day
Tomorrow will be .
, % of the Moon is Illuminated

Today's Extremes

State Highs State Lows

Community

WunderPhotos

Upload Photos

1,814,345 photos uploaded!

WunderBlogs® & News

Nearby

Air Quality

  Air Quality AQ Index Pollutant
Not available.

Snow Depth

Station Depth Elevation

Earthquake Activity

City Distance Mag. Time & Date
Minimum magnitude displayed is 2.5.

Coastal Water Temperatures

Place Temperature

Stations

Nearby Weather Stations

Station Location Temp. Windchill Dew Point Humidity Wind Precip. Elev Updated Type